Time;durP1;ratioP1;P1;durP2;ratioP2;P2;SDS_P1;SDS_P2;PMS_P1;PMS_P2;Temp;Humidity;BMP_temperature;BMP_pressure;BME280_temperature;BME280_humidity;BME280_pressure;Samples;Min_cycle;Max_cycle;Signal;HPM_P1;HPM_P2
2021/10/21 00:00:30;;;;;;;17.87;4.07;;;13.50;99.90;;;;;;5013061;28;20207;-94
2021/10/21 00:02:58;;;;;;;14.20;3.00;;;13.50;99.90;;;;;;5030905;28;20217;-93
2021/10/21 00:05:25;;;;;;;12.67;2.70;;;13.40;99.90;;;;;;5031363;28;20618;-91
2021/10/21 00:07:52;;;;;;;11.07;2.80;;;13.30;99.90;;;;;;5032820;28;20213;-92
2021/10/21 00:10:19;;;;;;;12.13;3.37;;;13.30;99.90;;;;;;5032636;28;20198;-92
2021/10/21 00:12:46;;;;;;;10.40;2.80;;;13.20;99.90;;;;;;5032827;28;20230;-96
2021/10/21 00:15:13;;;;;;;13.77;2.70;;;13.20;99.90;;;;;;5034459;28;20218;-92
2021/10/21 00:17:41;;;;;;;7.80;2.33;;;13.10;99.90;;;;;;5033553;28;20495;-93
2021/10/21 00:20:11;;;;;;;12.17;2.53;;;13.10;99.90;;;;;;5033914;28;20210;-91
2021/10/21 00:22:38;;;;;;;12.37;2.90;;;13.00;99.90;;;;;;5034684;28;20607;-92
2021/10/21 00:25:06;;;;;;;7.13;2.37;;;13.00;99.90;;;;;;5032508;28;20217;-92
2021/10/21 00:27:33;;;;;;;10.87;2.83;;;13.00;99.90;;;;;;5033068;28;20207;-95
2021/10/21 00:30:00;;;;;;;9.07;2.70;;;12.90;99.90;;;;;;5033680;28;20214;-94
2021/10/21 00:32:27;;;;;;;10.47;2.80;;;12.90;99.90;;;;;;5032988;28;20229;-93
2021/10/21 00:34:54;;;;;;;11.97;2.70;;;12.80;99.90;;;;;;5026996;28;20250;-93
2021/10/21 00:37:22;;;;;;;9.63;2.80;;;12.80;99.90;;;;;;5013013;28;20203;-93
2021/10/21 00:39:49;;;;;;;7.77;2.60;;;12.70;99.90;;;;;;5030014;28;20212;-94
2021/10/21 00:42:16;;;;;;;7.67;2.07;;;12.70;99.90;;;;;;5032827;28;20951;-90
2021/10/21 00:44:44;;;;;;;8.93;2.17;;;12.60;99.90;;;;;;5014490;28;20239;-92
2021/10/21 00:47:11;;;;;;;10.10;2.00;;;12.50;99.90;;;;;;5013263;28;20218;-91
2021/10/21 00:49:38;;;;;;;9.93;2.53;;;12.50;99.90;;;;;;5012479;28;20289;-88
2021/10/21 00:52:06;;;;;;;11.87;2.13;;;12.50;99.90;;;;;;5027338;28;20650;-90
2021/10/21 00:54:35;;;;;;;7.87;2.10;;;12.30;99.90;;;;;;5032557;28;20199;-92
2021/10/21 00:57:03;;;;;;;10.93;1.87;;;12.20;99.90;;;;;;5014777;28;20226;-93
2021/10/21 00:59:33;;;;;;;9.57;2.37;;;12.30;99.90;;;;;;5012473;28;20203;-93
2021/10/21 01:02:00;;;;;;;9.73;2.20;;;12.20;99.90;;;;;;5012894;28;20211;-93
2021/10/21 01:04:27;;;;;;;8.97;2.10;;;12.20;99.90;;;;;;5012469;28;20222;-94
2021/10/21 01:06:54;;;;;;;14.23;2.50;;;12.20;99.90;;;;;;5013287;28;20593;-94
2021/10/21 01:09:21;;;;;;;8.40;2.10;;;12.20;99.90;;;;;;5012781;28;20264;-94
2021/10/21 01:11:50;;;;;;;8.00;1.97;;;12.20;99.90;;;;;;5014317;28;20231;-94
2021/10/21 01:14:18;;;;;;;11.93;3.07;;;12.30;99.90;;;;;;5015891;28;20217;-95
2021/10/21 01:16:45;;;;;;;11.83;2.80;;;12.30;99.90;;;;;;5017110;28;20206;-96
2021/10/21 01:19:17;;;;;;;13.60;2.50;;;12.30;99.90;;;;;;5036473;28;20210;-93
2021/10/21 01:21:54;;;;;;;8.93;2.50;;;12.20;99.90;;;;;;5046052;23;20269;-93
2021/10/21 01:24:21;;;;;;;8.67;2.03;;;12.20;99.90;;;;;;5045200;28;20202;-96
2021/10/21 01:26:51;;;;;;;3.70;1.03;;;12.20;99.90;;;;;;5041188;28;20282;-94
2021/10/21 01:29:20;;;;;;;6.37;1.60;;;12.30;99.90;;;;;;5041481;28;20211;-94
2021/10/21 01:31:48;;;;;;;8.90;1.70;;;12.40;99.90;;;;;;5057801;28;20293;-92
2021/10/21 01:34:15;;;;;;;7.33;2.33;;;12.40;99.90;;;;;;5054930;28;20209;-90
2021/10/21 01:36:44;;;;;;;9.53;1.50;;;12.50;99.90;;;;;;5047319;28;20210;-92
2021/10/21 01:39:14;;;;;;;12.40;1.53;;;12.50;99.90;;;;;;5029195;28;20211;-95
2021/10/21 01:41:41;;;;;;;8.77;1.37;;;12.50;99.90;;;;;;5026918;28;20203;-93
2021/10/21 01:44:08;;;;;;;7.73;1.50;;;12.50;99.90;;;;;;5018923;28;20207;-89
2021/10/21 01:46:35;;;;;;;6.23;1.43;;;12.50;99.90;;;;;;5035611;28;20203;-89
2021/10/21 01:49:02;;;;;;;6.67;1.70;;;12.50;99.90;;;;;;5034717;28;20203;-91
2021/10/21 01:51:29;;;;;;;9.50;2.60;;;12.50;99.90;;;;;;5034590;28;20206;-94
2021/10/21 01:53:56;;;;;;;18.03;3.53;;;12.60;99.90;;;;;;5028759;28;20592;-93
2021/10/21 01:56:24;;;;;;;20.57;3.93;;;12.60;99.90;;;;;;5014386;28;20689;-90
2021/10/21 01:58:51;;;;;;;17.50;3.87;;;12.50;99.90;;;;;;5015401;28;20616;-90
2021/10/21 02:01:18;;;;;;;14.00;2.63;;;12.30;99.90;;;;;;5015163;28;20651;-83
2021/10/21 02:03:45;;;;;;;8.40;1.67;;;12.20;99.90;;;;;;5015714;28;20195;-91
2021/10/21 02:06:13;;;;;;;11.87;3.10;;;12.10;99.90;;;;;;5014465;28;20640;-91
2021/10/21 02:08:40;;;;;;;11.40;2.10;;;12.10;99.90;;;;;;5015465;28;20207;-91
2021/10/21 02:11:07;;;;;;;17.13;2.33;;;12.10;99.90;;;;;;5015269;28;20247;-87
2021/10/21 02:13:35;;;;;;;11.40;2.50;;;12.10;99.90;;;;;;5015055;28;20223;-92
2021/10/21 02:16:02;;;;;;;15.60;3.07;;;12.00;99.90;;;;;;5015659;28;20498;-93
2021/10/21 02:35:37;;;;;;;9.17;2.20;;;11.90;99.90;;;;;;4967341;28;20526;-92
2021/10/21 02:38:05;;;;;;;8.20;1.60;;;11.90;99.90;;;;;;4996588;28;20211;-95
2021/10/21 02:40:33;;;;;;;12.90;2.60;;;11.90;99.90;;;;;;4993788;28;20219;-95
2021/10/21 02:43:00;;;;;;;11.07;2.30;;;11.90;99.90;;;;;;4996633;28;20291;-92
2021/10/21 02:45:27;;;;;;;12.27;2.20;;;11.80;99.90;;;;;;4995028;28;20200;-91
2021/10/21 02:47:54;;;;;;;10.27;3.07;;;11.70;99.90;;;;;;5005344;28;20215;-92
2021/10/21 02:50:21;;;;;;;9.20;1.67;;;11.80;99.90;;;;;;5013556;28;20207;-91
2021/10/21 02:52:50;;;;;;;8.83;3.27;;;11.80;99.90;;;;;;5016902;28;20227;-93
2021/10/21 02:55:17;;;;;;;10.20;2.07;;;11.80;99.90;;;;;;5014769;28;20235;-92
2021/10/21 02:57:45;;;;;;;6.37;2.13;;;11.80;99.90;;;;;;5015424;28;20200;-93
2021/10/21 03:00:12;;;;;;;8.33;2.43;;;11.80;99.90;;;;;;5014597;28;20207;-93
2021/10/21 03:02:39;;;;;;;14.43;3.50;;;11.80;99.90;;;;;;5014576;28;20483;-92
2021/10/21 03:05:07;;;;;;;11.63;3.20;;;11.90;99.90;;;;;;5000620;28;20261;-93
2021/10/21 03:07:34;;;;;;;16.50;4.30;;;12.00;99.90;;;;;;5014485;28;20235;-94
2021/10/21 03:10:03;;;;;;;9.33;3.40;;;12.10;99.90;;;;;;5014960;28;20210;-93
2021/10/21 03:12:30;;;;;;;11.37;4.07;;;12.10;99.90;;;;;;5014126;28;20230;-93
2021/10/21 03:14:56;;;;;;;12.27;3.20;;;12.10;99.90;;;;;;5015208;28;20587;-93
2021/10/21 03:17:23;;;;;;;16.30;3.17;;;12.10;99.90;;;;;;5015215;28;20522;-94
2021/10/21 03:19:51;;;;;;;19.63;3.60;;;12.00;99.90;;;;;;5016891;28;20203;-94
2021/10/21 03:22:17;;;;;;;21.43;4.17;;;12.10;99.90;;;;;;5014676;28;20207;-93
2021/10/21 03:24:44;;;;;;;18.67;4.33;;;12.10;99.90;;;;;;5016163;28;20257;-92
2021/10/21 03:27:13;;;;;;;17.67;4.27;;;12.10;99.90;;;;;;5016525;28;20207;-91
2021/10/21 03:29:42;;;;;;;5.87;1.90;;;12.20;99.90;;;;;;5020176;28;20207;-91
2021/10/21 03:32:09;;;;;;;3.47;1.57;;;12.20;99.90;;;;;;5025704;28;20484;-90
2021/10/21 03:34:35;;;;;;;7.10;1.63;;;12.10;99.90;;;;;;5038073;28;20214;-91
2021/10/21 03:37:05;;;;;;;12.43;2.80;;;12.10;99.90;;;;;;5035162;28;20203;-95
2021/10/21 03:39:32;;;;;;;21.70;4.30;;;12.10;99.90;;;;;;5020435;28;20238;-88
2021/10/21 03:41:58;;;;;;;10.80;2.70;;;12.10;99.90;;;;;;5020462;28;20203;-90
2021/10/21 03:44:27;;;;;;;7.43;1.60;;;12.20;99.90;;;;;;5019512;28;20199;-91
2021/10/21 03:46:53;;;;;;;10.30;1.80;;;12.20;99.90;;;;;;5034425;28;20221;-88
2021/10/21 03:49:20;;;;;;;6.53;1.47;;;12.10;99.90;;;;;;5036595;28;20386;-89
2021/10/21 03:51:47;;;;;;;4.13;1.40;;;12.10;99.90;;;;;;5030368;28;20214;-90
2021/10/21 03:54:14;;;;;;;3.93;1.70;;;12.00;99.90;;;;;;5015489;28;20227;-88
2021/10/21 03:56:43;;;;;;;5.07;1.17;;;12.00;99.90;;;;;;5015945;28;20195;-90
2021/10/21 03:59:10;;;;;;;3.73;0.90;;;11.90;99.90;;;;;;5016476;28;20203;-93
2021/10/21 04:01:38;;;;;;;4.40;1.20;;;11.80;99.90;;;;;;5017552;28;20687;-92
2021/10/21 04:04:05;;;;;;;1.53;0.70;;;11.70;99.90;;;;;;5013959;28;20314;-94
2021/10/21 04:06:32;;;;;;;2.43;0.90;;;11.50;99.90;;;;;;5018376;28;20219;-90
2021/10/21 04:08:59;;;;;;;1.53;0.50;;;11.40;99.90;;;;;;5033276;28;20210;-94
2021/10/21 04:11:26;;;;;;;1.03;0.53;;;11.30;99.90;;;;;;5029913;28;20234;-94
2021/10/21 04:13:53;;;;;;;1.17;0.50;;;11.20;99.90;;;;;;5019927;28;20219;-92
2021/10/21 04:16:21;;;;;;;1.60;0.50;;;11.20;99.90;;;;;;5011863;28;20211;-90
2021/10/21 04:18:49;;;;;;;5.90;1.10;;;11.10;99.90;;;;;;5013304;28;20215;-88
2021/10/21 04:21:17;;;;;;;5.63;0.90;;;11.10;99.90;;;;;;5013563;28;20211;-89
2021/10/21 04:23:44;;;;;;;6.27;1.03;;;11.10;99.90;;;;;;5013412;28;20231;-93
2021/10/21 04:26:12;;;;;;;12.63;1.57;;;11.20;99.90;;;;;;5045747;23;20237;-93
2021/10/21 04:28:39;;;;;;;14.70;1.97;;;11.20;99.90;;;;;;5055500;28;20212;-91
2021/10/21 04:31:06;;;;;;;10.57;1.97;;;11.20;99.90;;;;;;5053849;28;20534;-94
2021/10/21 04:33:33;;;;;;;10.20;2.20;;;11.20;99.90;;;;;;5054810;28;20222;-90
2021/10/21 04:36:01;;;;;;;4.90;1.23;;;11.30;99.90;;;;;;5056369;28;20857;-94
2021/10/21 04:38:28;;;;;;;7.07;1.50;;;11.20;99.90;;;;;;5046790;28;20242;-95
2021/10/21 04:40:55;;;;;;;7.90;1.60;;;11.20;99.90;;;;;;5035857;28;20289;-91
2021/10/21 04:43:22;;;;;;;7.40;1.70;;;11.20;99.90;;;;;;5049309;28;20202;-91
2021/10/21 04:45:49;;;;;;;10.00;1.70;;;11.30;99.90;;;;;;5041154;28;20304;-91
2021/10/21 04:48:16;;;;;;;9.87;2.07;;;11.30;99.90;;;;;;5032733;28;20376;-92
2021/10/21 04:50:43;;;;;;;10.83;2.37;;;11.30;99.90;;;;;;5063718;23;20245;-94
2021/10/21 04:53:11;;;;;;;14.90;2.53;;;11.20;99.90;;;;;;5032635;28;20226;-94
2021/10/21 04:55:38;;;;;;;14.27;2.00;;;11.20;99.90;;;;;;5032014;28;20213;-93
2021/10/21 04:58:06;;;;;;;16.67;2.53;;;11.20;99.90;;;;;;5030397;28;20587;-91
2021/10/21 05:00:34;;;;;;;24.53;2.93;;;11.30;99.90;;;;;;5030983;28;20214;-91
2021/10/21 05:03:08;;;;;;;18.97;2.93;;;11.30;99.90;;;;;;5031986;28;20694;-94
2021/10/21 05:05:35;;;;;;;19.80;3.37;;;11.30;99.90;;;;;;5031595;28;20206;-92
2021/10/21 05:08:02;;;;;;;18.70;3.03;;;11.30;99.90;;;;;;5031872;28;20214;-91
2021/10/21 05:10:30;;;;;;;21.00;2.63;;;11.40;99.90;;;;;;5031489;28;20209;-91
2021/10/21 05:13:00;;;;;;;15.13;3.93;;;11.30;99.90;;;;;;5032119;28;20318;-90
2021/10/21 05:15:27;;;;;;;11.57;1.97;;;11.20;99.90;;;;;;5028756;28;20230;-92
2021/10/21 05:17:54;;;;;;;15.23;2.50;;;11.20;99.90;;;;;;5012058;28;20273;-93
2021/10/21 05:20:22;;;;;;;13.27;2.53;;;11.30;99.90;;;;;;5012366;28;20227;-92
2021/10/21 05:22:49;;;;;;;14.67;2.53;;;11.30;99.90;;;;;;5012265;28;20290;-93
2021/10/21 05:25:16;;;;;;;9.13;1.90;;;11.30;99.90;;;;;;5011925;28;20219;-87
2021/10/21 05:27:44;;;;;;;10.43;1.90;;;11.40;99.90;;;;;;5012512;28;20203;-92
2021/10/21 05:30:11;;;;;;;5.60;1.63;;;11.40;99.90;;;;;;5012151;28;20231;-89
2021/10/21 05:32:38;;;;;;;9.97;1.90;;;11.40;99.90;;;;;;5011821;28;20215;-91
2021/10/21 05:35:06;;;;;;;9.43;1.63;;;11.50;99.90;;;;;;5012410;28;20500;-91
2021/10/21 05:37:33;;;;;;;14.13;2.20;;;11.50;99.90;;;;;;5012388;28;20218;-91
2021/10/21 05:39:59;;;;;;;8.70;1.60;;;11.60;99.90;;;;;;5011984;28;20600;-95
2021/10/21 05:42:26;;;;;;;14.23;3.50;;;11.60;99.90;;;;;;5035025;28;20209;-91
2021/10/21 05:44:55;;;;;;;8.50;2.20;;;11.60;99.90;;;;;;5034118;28;20206;-88
2021/10/21 05:47:22;;;;;;;9.00;2.30;;;11.70;99.90;;;;;;5033980;28;20195;-93
2021/10/21 05:49:49;;;;;;;14.47;2.53;;;11.70;99.90;;;;;;5034295;28;20244;-89
2021/10/21 05:52:19;;;;;;;14.03;2.80;;;11.90;99.90;;;;;;5033561;28;20236;-92
2021/10/21 05:54:46;;;;;;;12.43;2.40;;;12.00;99.90;;;;;;5032864;28;20226;-91
2021/10/21 05:57:14;;;;;;;9.77;2.40;;;12.10;99.90;;;;;;5032264;28;20202;-89
2021/10/21 05:59:41;;;;;;;16.33;4.13;;;12.10;99.90;;;;;;5032526;28;20214;-93
2021/10/21 06:02:10;;;;;;;13.87;2.43;;;12.20;99.90;;;;;;5032460;28;20206;-88
2021/10/21 06:04:36;;;;;;;10.70;2.30;;;12.20;99.90;;;;;;5032627;28;20214;-91
2021/10/21 06:07:04;;;;;;;13.33;3.00;;;12.30;99.90;;;;;;5031133;28;20222;-96
2021/10/21 06:09:31;;;;;;;13.00;2.67;;;12.30;99.90;;;;;;5035536;28;20203;-94
2021/10/21 06:11:58;;;;;;;19.50;3.50;;;12.40;99.90;;;;;;5035935;28;20222;-93
2021/10/21 06:14:29;;;;;;;14.60;2.40;;;12.30;99.90;;;;;;5035450;28;20222;-92
2021/10/21 06:16:56;;;;;;;13.23;3.57;;;12.40;99.90;;;;;;5036155;28;20881;-92
2021/10/21 06:19:29;;;;;;;14.97;3.90;;;12.40;99.90;;;;;;5035474;28;20214;-90
2021/10/21 06:22:01;;;;;;;12.53;2.40;;;12.50;99.90;;;;;;5017221;28;20205;-93
2021/10/21 06:24:28;;;;;;;10.43;3.60;;;12.50;99.90;;;;;;5018757;28;20234;-91
2021/10/21 06:26:55;;;;;;;12.33;2.40;;;12.40;99.90;;;;;;5035917;28;20210;-88
2021/10/21 06:29:22;;;;;;;15.40;3.47;;;12.30;99.90;;;;;;5034122;28;20203;-89
2021/10/21 06:31:49;;;;;;;13.27;2.50;;;12.30;99.90;;;;;;5035399;28;20202;-86
2021/10/21 06:34:17;;;;;;;12.77;2.60;;;12.20;99.90;;;;;;5036563;28;20256;-90
2021/10/21 06:36:46;;;;;;;6.77;1.87;;;12.20;99.90;;;;;;5016067;28;20622;-90
2021/10/21 06:39:13;;;;;;;7.87;2.33;;;12.30;99.90;;;;;;5016697;28;20203;-94
2021/10/21 06:41:40;;;;;;;10.40;2.63;;;12.30;99.90;;;;;;5015849;28;20199;-92
2021/10/21 06:44:07;;;;;;;14.40;2.50;;;12.30;99.90;;;;;;5027284;28;20203;-88
2021/10/21 06:46:35;;;;;;;9.20;2.00;;;12.30;99.90;;;;;;5038528;28;20202;-92
2021/10/21 06:49:02;;;;;;;15.37;2.00;;;12.30;99.90;;;;;;5037870;28;20214;-93
2021/10/21 06:51:29;;;;;;;10.93;2.17;;;12.40;99.90;;;;;;5038000;28;20245;-93
2021/10/21 06:53:58;;;;;;;10.20;2.17;;;12.40;99.90;;;;;;5023935;28;20250;-93
2021/10/21 06:56:25;;;;;;;10.03;2.67;;;12.40;99.90;;;;;;5019015;28;20667;-94
2021/10/21 06:58:52;;;;;;;15.33;2.70;;;12.40;99.90;;;;;;5017776;28;20207;-94
2021/10/21 07:01:19;;;;;;;11.70;2.17;;;12.30;99.90;;;;;;5020965;28;20618;-92
2021/10/21 07:03:46;;;;;;;9.63;2.00;;;12.40;99.90;;;;;;5033673;28;20207;-93
2021/10/21 07:06:13;;;;;;;14.43;2.57;;;12.40;99.90;;;;;;5035025;28;20561;-93
2021/10/21 07:08:40;;;;;;;8.10;2.10;;;12.40;99.90;;;;;;5036645;28;20504;-92
2021/10/21 07:11:09;;;;;;;9.30;2.63;;;12.40;99.90;;;;;;5029539;28;20631;-89
2021/10/21 07:13:36;;;;;;;11.83;3.57;;;12.40;99.90;;;;;;5014063;28;20259;-92
2021/10/21 07:16:04;;;;;;;12.50;2.20;;;12.40;99.90;;;;;;5014968;28;20246;-93
2021/10/21 07:18:32;;;;;;;14.27;2.13;;;12.50;99.90;;;;;;5030502;22;20206;-91
2021/10/21 07:20:59;;;;;;;10.33;2.47;;;12.50;99.90;;;;;;5054198;28;20224;-90
2021/10/21 07:23:26;;;;;;;14.60;3.77;;;12.50;99.90;;;;;;5050762;28;20285;-93
2021/10/21 07:26:05;;;;;;;21.33;3.47;;;12.60;99.90;;;;;;5038456;28;20210;-88
2021/10/21 07:28:34;;;;;;;15.80;3.87;;;12.60;99.90;;;;;;5049754;28;20653;-94
2021/10/21 07:31:01;;;;;;;19.27;4.30;;;12.60;99.90;;;;;;5053077;28;20224;-91
2021/10/21 07:33:28;;;;;;;21.10;4.30;;;12.60;99.90;;;;;;5052512;28;20256;-93
2021/10/21 07:35:56;;;;;;;17.70;3.90;;;12.50;99.90;;;;;;5052723;28;20213;-92
2021/10/21 07:38:23;;;;;;;20.00;4.00;;;12.60;99.90;;;;;;5035711;28;20601;-90
2021/10/21 07:40:50;;;;;;;12.77;2.57;;;12.50;99.90;;;;;;5054370;28;20213;-88
2021/10/21 07:43:17;;;;;;;9.73;2.80;;;12.50;99.90;;;;;;5053599;28;20209;-87
2021/10/21 07:45:46;;;;;;;13.90;3.27;;;12.40;99.90;;;;;;5052105;28;20202;-90
2021/10/21 07:48:12;;;;;;;10.23;2.80;;;12.40;99.90;;;;;;5053279;28;20601;-91
2021/10/21 07:50:40;;;;;;;13.27;2.60;;;12.40;99.90;;;;;;5052985;28;20232;-92
2021/10/21 07:53:07;;;;;;;15.90;3.47;;;12.40;99.90;;;;;;5042215;28;20215;-92
2021/10/21 07:55:34;;;;;;;14.50;3.53;;;12.40;99.90;;;;;;5033441;28;20272;-93
2021/10/21 07:58:03;;;;;;;10.90;3.63;;;12.40;99.90;;;;;;5033818;28;20207;-93
2021/10/21 08:00:30;;;;;;;14.23;4.53;;;12.40;99.90;;;;;;5032944;28;20754;-86
2021/10/21 08:02:59;;;;;;;12.33;3.20;;;12.40;99.90;;;;;;5033084;28;20210;-91
2021/10/21 08:05:27;;;;;;;19.53;3.37;;;12.40;99.90;;;;;;5032842;28;20221;-92
2021/10/21 08:07:54;;;;;;;22.13;3.27;;;12.40;99.90;;;;;;5032633;28;20211;-86
2021/10/21 08:10:21;;;;;;;15.27;2.77;;;12.40;99.90;;;;;;5033223;28;20214;-88
2021/10/21 08:12:50;;;;;;;15.83;3.83;;;12.40;99.90;;;;;;5032950;28;20226;-85
2021/10/21 08:15:18;;;;;;;8.80;2.63;;;12.50;99.90;;;;;;5031880;28;20646;-90
2021/10/21 08:17:45;;;;;;;11.87;2.70;;;12.50;99.90;;;;;;5031912;28;20206;-92
2021/10/21 08:20:14;;;;;;;15.37;3.27;;;12.50;99.90;;;;;;5032299;28;20230;-83
2021/10/21 08:22:42;;;;;;;11.07;2.67;;;12.60;99.90;;;;;;5032075;28;20214;-87
2021/10/21 08:25:10;;;;;;;10.90;2.77;;;12.70;99.90;;;;;;5032759;28;20210;-89
2021/10/21 08:27:37;;;;;;;11.80;2.43;;;12.70;99.90;;;;;;5032451;28;20290;-88
2021/10/21 08:30:04;;;;;;;11.17;3.27;;;12.80;99.90;;;;;;5039316;28;20267;-91
2021/10/21 08:32:31;;;;;;;10.73;2.20;;;12.80;99.90;;;;;;5049716;28;20206;-86
2021/10/21 08:34:58;;;;;;;18.00;3.40;;;12.90;99.90;;;;;;5047841;28;20222;-87
2021/10/21 08:37:26;;;;;;;11.03;2.00;;;13.00;99.90;;;;;;5049591;28;20209;-87
2021/10/21 08:39:53;;;;;;;13.17;2.50;;;13.10;99.90;;;;;;5051333;28;20202;-86
2021/10/21 08:42:20;;;;;;;14.77;3.37;;;13.20;99.90;;;;;;5048499;28;20213;-85
2021/10/21 08:44:49;;;;;;;16.57;2.50;;;13.30;99.90;;;;;;5047723;28;20540;-89
2021/10/21 08:47:19;;;;;;;12.53;2.30;;;13.30;99.90;;;;;;5046626;28;20885;-89
2021/10/21 08:49:47;;;;;;;9.03;1.93;;;13.40;99.90;;;;;;5047719;28;20206;-88
2021/10/21 08:52:17;;;;;;;10.90;2.97;;;13.40;99.90;;;;;;5049986;28;20209;-91
2021/10/21 08:54:49;;;;;;;8.07;1.80;;;13.40;99.90;;;;;;5049927;28;20218;-91
2021/10/21 08:57:19;;;;;;;14.83;2.40;;;13.40;99.90;;;;;;5047171;28;20677;-88
2021/10/21 08:59:45;;;;;;;12.13;2.40;;;13.30;99.90;;;;;;5049515;28;20302;-92
2021/10/21 09:02:17;;;;;;;12.63;3.07;;;13.30;99.90;;;;;;5051657;28;20220;-89
2021/10/21 09:05:02;;;;;;;13.63;2.70;;;13.30;99.90;;;;;;5052336;28;20206;-89
2021/10/21 09:10:20;;;;;;;7.43;1.87;;;13.20;99.90;;;;;;5049940;28;20282;-87
2021/10/21 09:12:48;;;;;;;9.00;2.80;;;13.10;99.90;;;;;;5050222;28;20660;-93
2021/10/21 09:15:17;;;;;;;12.40;2.73;;;13.00;99.90;;;;;;5045985;28;20225;-90
2021/10/21 09:17:47;;;;;;;12.03;2.57;;;13.00;99.90;;;;;;5049595;28;20208;-89
2021/10/21 09:20:25;;;;;;;5.87;1.43;;;12.90;99.90;;;;;;5050055;28;20257;-82
2021/10/21 09:22:54;;;;;;;11.33;1.60;;;12.70;99.90;;;;;;5048271;28;20216;-93
2021/10/21 09:25:29;;;;;;;23.17;3.30;;;12.50;99.90;;;;;;5050917;28;20629;-90
2021/10/21 09:28:02;;;;;;;14.90;1.93;;;12.30;99.90;;;;;;5050266;28;20213;-89
2021/10/21 09:30:31;;;;;;;13.63;2.23;;;12.10;99.90;;;;;;5046778;28;20577;-91
2021/10/21 09:33:03;;;;;;;16.03;2.93;;;11.90;99.90;;;;;;5050556;28;20213;-96
2021/10/21 09:35:30;;;;;;;9.67;2.40;;;11.80;99.90;;;;;;5048038;28;20237;-86
2021/10/21 09:37:57;;;;;;;14.93;3.37;;;11.70;99.90;;;;;;5050541;28;20214;-93
2021/10/21 09:40:31;;;;;;;11.63;1.97;;;11.60;99.90;;;;;;5050430;28;20202;-92
2021/10/21 09:42:59;;;;;;;14.13;2.63;;;11.50;99.90;;;;;;5050928;28;20312;-91
2021/10/21 09:45:28;;;;;;;9.17;2.10;;;11.40;99.90;;;;;;5053358;28;20198;-92
2021/10/21 09:47:56;;;;;;;9.63;2.17;;;11.30;99.90;;;;;;5052984;28;20206;-87
2021/10/21 09:50:27;;;;;;;10.00;1.70;;;11.40;99.90;;;;;;5053185;28;20598;-88
2021/10/21 09:53:18;;;;;;;9.47;2.67;;;11.40;99.90;;;;;;5054115;28;20233;-88
2021/10/21 09:55:51;;;;;;;10.33;2.00;;;11.40;99.90;;;;;;5052133;28;20317;-92
2021/10/21 09:58:21;;;;;;;7.50;1.80;;;11.40;99.90;;;;;;5051625;28;20296;-86
2021/10/21 10:00:50;;;;;;;8.37;2.53;;;11.20;99.90;;;;;;5051675;28;20209;-91
2021/10/21 10:03:18;;;;;;;12.03;2.53;;;11.20;99.90;;;;;;5050901;28;20232;-92
2021/10/21 10:05:47;;;;;;;12.03;2.07;;;11.10;99.90;;;;;;5053034;28;20622;-91
2021/10/21 10:08:16;;;;;;;11.10;1.97;;;11.00;99.90;;;;;;5052268;28;20210;-89
2021/10/21 10:10:44;;;;;;;9.80;1.57;;;11.00;99.90;;;;;;5054478;28;20209;-86
2021/10/21 10:13:15;;;;;;;11.37;2.13;;;10.90;99.90;;;;;;5053650;28;20202;-90
2021/10/21 10:15:45;;;;;;;11.17;1.53;;;10.90;99.90;;;;;;5052096;28;20641;-91
2021/10/21 10:18:16;;;;;;;10.40;1.80;;;10.80;99.90;;;;;;5049524;28;20220;-89
2021/10/21 10:20:45;;;;;;;16.07;2.10;;;10.70;99.90;;;;;;5054321;28;20194;-92
2021/10/21 10:23:14;;;;;;;11.73;2.30;;;10.70;99.90;;;;;;5053353;28;20198;-89
2021/10/21 10:25:48;;;;;;;9.03;1.87;;;10.70;99.90;;;;;;5049784;28;20779;-90
2021/10/21 10:28:17;;;;;;;11.93;2.10;;;10.60;99.90;;;;;;5053167;28;20301;-87
2021/10/21 10:30:49;;;;;;;6.07;1.27;;;10.60;99.90;;;;;;5053283;28;20529;-90
2021/10/21 10:33:42;;;;;;;11.50;1.87;;;10.60;99.90;;;;;;5053074;28;20217;-90
2021/10/21 10:36:30;;;;;;;6.27;1.97;;;10.70;99.90;;;;;;5052169;28;20221;-91
2021/10/21 10:38:58;;;;;;;6.63;2.67;;;10.70;99.90;;;;;;5053383;28;20202;-91
2021/10/21 10:41:44;;;;;;;9.13;1.23;;;10.80;99.90;;;;;;5052010;28;20206;-88
2021/10/21 10:44:48;;;;;;;4.07;1.43;;;10.90;99.90;;;;;;5053150;28;20275;-90
2021/10/21 10:47:15;;;;;;;6.43;1.47;;;10.90;99.90;;;;;;5052254;28;20213;-89
2021/10/21 10:49:44;;;;;;;7.07;1.10;;;11.00;99.90;;;;;;5052651;28;20214;-91
2021/10/21 10:52:12;;;;;;;3.70;1.00;;;11.00;99.90;;;;;;5052517;28;20222;-88
2021/10/21 10:54:55;;;;;;;8.60;1.20;;;11.10;99.90;;;;;;5052117;28;20332;-86
2021/10/21 10:57:56;;;;;;;9.67;2.10;;;11.10;99.90;;;;;;5047078;28;20206;-89
2021/10/21 11:00:58;;;;;;;12.80;2.10;;;11.10;99.90;;;;;;5051170;28;20228;-90
2021/10/21 11:03:36;;;;;;;8.23;1.87;;;11.10;99.90;;;;;;4990064;28;20972;-88
2021/10/21 11:06:06;;;;;;;7.37;1.60;;;11.00;99.90;;;;;;4991083;28;20214;-90
2021/10/21 11:08:54;;;;;;;10.07;1.73;;;11.00;99.90;;;;;;5022448;28;20677;-88
2021/10/21 11:11:45;;;;;;;7.47;1.50;;;11.00;99.90;;;;;;5051689;28;20265;-87
2021/10/21 11:14:13;;;;;;;13.73;2.10;;;11.00;99.90;;;;;;5050257;28;20263;-90
2021/10/21 11:16:44;;;;;;;10.47;1.97;;;11.10;99.90;;;;;;5049394;28;20245;-90
2021/10/21 11:19:13;;;;;;;6.40;1.50;;;11.20;99.90;;;;;;5052824;28;20618;-93
2021/10/21 11:21:50;;;;;;;7.17;2.10;;;11.30;99.90;;;;;;5052924;28;20210;-92
2021/10/21 11:24:57;;;;;;;13.00;1.57;;;11.40;99.90;;;;;;5048850;28;20610;-88
2021/10/21 11:27:26;;;;;;;11.43;2.70;;;11.60;99.90;;;;;;5045477;28;20292;-91
2021/10/21 11:29:53;;;;;;;19.87;3.70;;;11.90;99.90;;;;;;5049597;28;20217;-90
2021/10/21 11:32:22;;;;;;;10.93;3.10;;;12.00;99.90;;;;;;5052213;28;20225;-89
2021/10/21 11:34:49;;;;;;;15.83;3.30;;;12.00;99.90;;;;;;5050872;28;20256;-87
2021/10/21 11:37:33;;;;;;;11.10;2.40;;;11.80;99.90;;;;;;5049754;28;20217;-94
2021/10/21 11:40:01;;;;;;;11.40;2.43;;;11.60;99.90;;;;;;5050066;28;20859;-91
2021/10/21 11:42:29;;;;;;;11.27;3.27;;;11.60;99.90;;;;;;5052321;28;20296;-93
2021/10/21 11:45:07;;;;;;;5.67;1.60;;;11.50;99.90;;;;;;5051886;28;20213;-93
2021/10/21 11:47:36;;;;;;;8.83;2.30;;;11.40;99.90;;;;;;5048806;28;20217;-92
2021/10/21 11:50:04;;;;;;;6.30;1.27;;;11.50;99.90;;;;;;5049720;28;20501;-89
2021/10/21 11:52:41;;;;;;;6.53;1.57;;;11.50;99.90;;;;;;5053294;28;20218;-90
2021/10/21 11:55:17;;;;;;;6.23;1.27;;;11.60;99.90;;;;;;5050573;28;20237;-89
2021/10/21 11:57:44;;;;;;;3.90;1.40;;;11.60;99.90;;;;;;5053166;28;20206;-89
2021/10/21 12:00:19;;;;;;;8.73;2.83;;;11.70;99.90;;;;;;5053236;28;20217;-91
2021/10/21 12:02:50;;;;;;;7.50;1.50;;;11.70;99.90;;;;;;5050155;28;20233;-92
2021/10/21 12:05:18;;;;;;;4.27;1.23;;;11.80;99.90;;;;;;5053638;28;20213;-90
2021/10/21 12:07:46;;;;;;;8.47;2.07;;;11.90;99.90;;;;;;5054156;28;20216;-88
2021/10/21 12:10:25;;;;;;;11.83;2.63;;;11.90;99.90;;;;;;5051139;28;20202;-90
2021/10/21 12:12:52;;;;;;;9.97;2.40;;;11.70;99.90;;;;;;5052596;28;20300;-86
2021/10/21 12:15:19;;;;;;;8.47;2.23;;;11.60;99.90;;;;;;5054043;28;20317;-89
2021/10/21 12:17:46;;;;;;;10.13;1.80;;;11.50;99.90;;;;;;5056912;28;20206;-90
2021/10/21 12:20:14;;;;;;;12.77;2.47;;;11.40;99.90;;;;;;5055965;28;20238;-90
2021/10/21 12:22:41;;;;;;;9.43;2.80;;;11.40;99.90;;;;;;5046107;28;20233;-87
2021/10/21 12:25:09;;;;;;;14.23;3.00;;;11.40;99.90;;;;;;5046014;28;20198;-89
2021/10/21 12:27:36;;;;;;;12.40;2.10;;;11.40;99.90;;;;;;5038080;28;20214;-91
2021/10/21 12:30:06;;;;;;;13.00;2.90;;;11.40;99.90;;;;;;5041797;28;20209;-89
2021/10/21 12:32:33;;;;;;;9.00;2.37;;;11.40;99.90;;;;;;5035451;28;20677;-87
2021/10/21 12:35:08;;;;;;;12.53;2.50;;;11.50;99.90;;;;;;5031516;28;20230;-88
2021/10/21 12:37:42;;;;;;;10.87;2.37;;;11.50;99.90;;;;;;5030761;28;20280;-89
2021/10/21 12:40:21;;;;;;;12.40;2.93;;;11.70;99.90;;;;;;5030477;28;20208;-90
2021/10/21 12:42:48;;;;;;;11.90;2.77;;;11.90;99.90;;;;;;5030258;28;20215;-89
2021/10/21 12:45:23;;;;;;;18.57;4.20;;;12.10;99.90;;;;;;5029880;28;20214;-88
2021/10/21 12:47:51;;;;;;;17.50;3.97;;;12.30;99.90;;;;;;5031174;28;20213;-89
2021/10/21 12:50:24;;;;;;;19.77;5.23;;;12.40;99.90;;;;;;5029111;28;20203;-85
2021/10/21 12:52:56;;;;;;;19.47;4.57;;;12.50;99.90;;;;;;5030923;28;20294;-91
2021/10/21 12:55:29;;;;;;;25.53;4.47;;;12.40;99.90;;;;;;5029410;28;20226;-91
2021/10/21 12:58:01;;;;;;;18.90;4.20;;;12.40;99.90;;;;;;5029213;28;20532;-88
2021/10/21 13:00:29;;;;;;;15.80;3.80;;;12.30;99.90;;;;;;5026620;28;20599;-89
2021/10/21 13:03:01;;;;;;;17.70;3.43;;;12.30;99.90;;;;;;5030658;28;20234;-92
2021/10/21 13:05:28;;;;;;;15.30;3.00;;;12.20;99.90;;;;;;5030549;28;20214;-89
2021/10/21 13:07:56;;;;;;;19.00;4.47;;;12.20;99.90;;;;;;5027496;28;20214;-92
2021/10/21 13:10:25;;;;;;;10.80;3.13;;;12.20;99.90;;;;;;5030298;28;20284;-89